createdAt,value
2017-07-22T00:01:59.984Z,8.43
2017-07-22T00:04:27.552Z,7.70
2017-07-22T00:06:55.059Z,8.27
2017-07-22T00:09:22.558Z,7.40
2017-07-22T00:11:50.099Z,8.37
2017-07-22T00:14:17.593Z,7.77
2017-07-22T00:16:45.129Z,8.30
2017-07-22T00:19:12.623Z,7.57
2017-07-22T00:21:40.157Z,7.50
2017-07-22T00:24:07.658Z,7.70
2017-07-22T00:26:35.213Z,7.73
2017-07-22T00:29:02.713Z,8.00
2017-07-22T00:31:30.209Z,8.03
2017-07-22T00:33:57.755Z,8.13
2017-07-22T00:36:25.258Z,8.23
2017-07-22T00:38:52.760Z,8.03
2017-07-22T00:41:20.345Z,6.90
2017-07-22T00:43:47.884Z,7.47
2017-07-22T00:46:15.393Z,9.30
2017-07-22T00:48:42.923Z,7.30
2017-07-22T00:51:10.478Z,7.20
2017-07-22T00:53:37.973Z,8.00
2017-07-22T00:56:05.475Z,8.00
2017-07-22T00:58:33.022Z,7.63
2017-07-22T01:01:00.528Z,8.43
2017-07-22T01:03:28.102Z,7.70
2017-07-22T01:05:55.592Z,6.93
2017-07-22T01:08:23.103Z,9.50
2017-07-22T01:10:50.644Z,8.60
2017-07-22T01:13:18.161Z,7.63
2017-07-22T01:15:45.694Z,6.87
2017-07-22T01:18:13.233Z,8.00
2017-07-22T01:20:40.735Z,8.37
2017-07-22T01:23:08.294Z,8.23
2017-07-22T01:25:35.825Z,6.47
2017-07-22T01:28:03.373Z,8.50
2017-07-22T01:30:30.925Z,7.60
2017-07-22T01:32:58.425Z,8.27
2017-07-22T01:35:25.917Z,7.00
2017-07-22T01:37:53.454Z,7.50
2017-07-22T01:40:20.973Z,7.47
2017-07-22T01:42:48.533Z,8.50
2017-07-22T01:45:16.049Z,7.70
2017-07-22T01:47:43.545Z,7.33
2017-07-22T01:50:11.083Z,8.17
2017-07-22T01:52:38.614Z,8.47
2017-07-22T01:55:06.157Z,8.27
2017-07-22T01:57:33.658Z,8.27
2017-07-22T02:00:01.165Z,6.93
2017-07-22T02:02:28.764Z,7.47
2017-07-22T02:04:56.264Z,8.07
2017-07-22T02:07:23.779Z,7.00
2017-07-22T02:09:51.369Z,7.57
2017-07-22T02:12:18.909Z,8.03
2017-07-22T02:14:46.406Z,8.03
2017-07-22T02:17:13.961Z,9.10
2017-07-22T02:19:41.466Z,8.03
2017-07-22T02:22:08.965Z,7.60
2017-07-22T02:24:36.497Z,7.67
2017-07-22T02:27:03.997Z,7.00
2017-07-22T02:29:31.554Z,7.80
2017-07-22T02:31:59.117Z,9.10
2017-07-22T02:34:26.619Z,7.70
2017-07-22T02:36:54.172Z,7.90
2017-07-22T02:39:21.672Z,7.80
2017-07-22T02:41:49.171Z,8.00
2017-07-22T02:44:16.752Z,7.83
2017-07-22T02:46:44.251Z,7.53
2017-07-22T02:49:11.753Z,8.33
2017-07-22T02:51:39.285Z,8.13
2017-07-22T02:54:06.825Z,7.83
2017-07-22T02:56:34.405Z,7.40
2017-07-22T02:59:01.926Z,7.70
2017-07-22T03:01:29.428Z,7.50
2017-07-22T03:03:56.976Z,7.93
2017-07-22T03:06:24.481Z,7.87
2017-07-22T03:08:52.031Z,7.17
2017-07-22T03:11:19.575Z,7.80
2017-07-22T03:13:47.093Z,9.33
2017-07-22T03:16:14.649Z,7.30
2017-07-22T03:18:42.149Z,7.40
2017-07-22T03:21:09.649Z,9.07
2017-07-22T03:23:37.197Z,7.40
2017-07-22T03:26:04.719Z,7.93
2017-07-22T03:28:32.217Z,8.23
2017-07-22T03:30:59.755Z,8.10
2017-07-22T03:33:27.267Z,8.60
2017-07-22T03:35:54.817Z,8.10
2017-07-22T03:38:22.312Z,8.17
2017-07-22T03:40:49.805Z,9.50
2017-07-22T03:43:17.417Z,8.13
2017-07-22T03:45:44.916Z,8.40
2017-07-22T03:48:12.432Z,7.17
2017-07-22T03:50:39.983Z,8.03
2017-07-22T03:53:07.485Z,8.27
2017-07-22T03:55:34.985Z,8.50
2017-07-22T03:58:02.561Z,6.90
2017-07-22T04:00:30.057Z,8.30
2017-07-22T04:02:57.644Z,8.83
2017-07-22T04:05:25.482Z,7.80
2017-07-22T04:07:52.986Z,7.50
2017-07-22T04:10:20.485Z,8.90
2017-07-22T04:12:48.018Z,7.73
2017-07-22T04:15:15.514Z,8.67
2017-07-22T04:17:43.069Z,8.00
2017-07-22T04:20:10.565Z,8.53
2017-07-22T04:22:38.056Z,8.03
2017-07-22T04:25:05.609Z,8.23
2017-07-22T04:27:33.111Z,8.60
2017-07-22T04:30:00.662Z,9.00
2017-07-22T04:32:28.201Z,7.77
2017-07-22T04:34:55.708Z,8.57
2017-07-22T04:37:23.250Z,8.80
2017-07-22T04:39:50.758Z,9.87
2017-07-22T04:42:18.317Z,8.10
2017-07-22T04:44:45.837Z,8.60
2017-07-22T04:47:13.337Z,8.53
2017-07-22T04:49:40.885Z,8.57
2017-07-22T04:52:08.401Z,8.20
2017-07-22T04:54:35.915Z,8.77
2017-07-22T04:57:03.509Z,9.70
2017-07-22T04:59:31.012Z,9.30
2017-07-22T05:01:58.582Z,8.70
2017-07-22T05:04:26.159Z,8.87
2017-07-22T05:06:53.668Z,9.80
2017-07-22T05:09:21.170Z,8.77
2017-07-22T05:11:48.714Z,9.53
2017-07-22T05:14:16.212Z,8.77
2017-07-22T05:16:43.729Z,9.87
2017-07-22T05:19:11.291Z,9.00
2017-07-22T05:21:38.794Z,8.50
2017-07-22T05:24:06.293Z,9.00
2017-07-22T05:26:33.829Z,9.73
2017-07-22T05:29:01.322Z,8.60
2017-07-22T05:31:28.865Z,8.80
2017-07-22T05:33:56.356Z,9.03
2017-07-22T05:36:23.861Z,8.47
2017-07-22T05:38:51.411Z,8.50
2017-07-22T05:41:18.946Z,8.10
2017-07-22T05:43:46.457Z,7.83
2017-07-22T05:46:14.020Z,8.20
2017-07-22T05:48:41.518Z,8.10
2017-07-22T05:51:09.021Z,9.37
2017-07-22T05:53:36.558Z,9.40
2017-07-22T05:56:04.112Z,7.93
2017-07-22T05:58:32.477Z,7.93
2017-07-22T06:00:59.992Z,9.53
2017-07-22T06:03:27.561Z,7.80
2017-07-22T06:05:55.117Z,7.97
2017-07-22T06:08:22.613Z,8.20
2017-07-22T06:10:50.100Z,8.67
2017-07-22T06:13:17.636Z,7.63
2017-07-22T06:15:45.194Z,8.07
2017-07-22T06:18:12.705Z,9.00
2017-07-22T06:20:40.225Z,8.87
2017-07-22T06:23:07.813Z,8.90
2017-07-22T06:25:35.317Z,7.73
2017-07-22T06:28:02.825Z,8.17
2017-07-22T06:30:30.395Z,8.67
2017-07-22T06:32:58.013Z,8.93
2017-07-22T06:35:25.517Z,8.10
2017-07-22T06:37:53.055Z,8.77
2017-07-22T06:40:20.610Z,9.43
2017-07-22T06:42:48.120Z,8.83
2017-07-22T06:45:15.631Z,9.13
2017-07-22T06:47:43.178Z,8.77
2017-07-22T06:50:10.683Z,8.40
2017-07-22T06:52:38.189Z,9.53
2017-07-22T06:55:05.773Z,8.30
2017-07-22T06:57:33.319Z,8.37
2017-07-22T07:00:00.828Z,8.90
2017-07-22T07:02:28.401Z,9.70
2017-07-22T07:04:55.893Z,8.60
2017-07-22T07:07:23.451Z,10.03
2017-07-22T07:09:50.986Z,9.47
2017-07-22T07:12:18.488Z,10.30
2017-07-22T07:14:46.056Z,8.60
2017-07-22T07:17:13.557Z,15.07
2017-07-22T07:19:41.065Z,11.37
2017-07-22T07:22:08.606Z,9.50
2017-07-22T07:24:36.112Z,10.30
2017-07-22T07:27:03.645Z,9.90
2017-07-22T07:29:31.202Z,22.57
2017-07-22T07:31:58.769Z,11.00
2017-07-22T07:34:26.266Z,10.30
2017-07-22T07:36:53.808Z,11.83
2017-07-22T07:39:21.317Z,22.37
2017-07-22T07:41:48.885Z,10.40
2017-07-22T07:44:16.409Z,11.70
2017-07-22T07:46:43.949Z,10.70
2017-07-22T07:49:11.524Z,22.90
2017-07-22T07:51:39.032Z,10.63
2017-07-22T07:54:06.538Z,22.80
2017-07-22T07:56:34.093Z,47.90
2017-07-22T07:59:01.845Z,33.13
2017-07-22T08:01:36.382Z,18.20
2017-07-22T08:04:03.913Z,48.33
2017-07-22T08:06:31.428Z,50.43
2017-07-22T08:09:00.250Z,51.73
2017-07-22T08:11:27.758Z,71.03
2017-07-22T08:13:55.346Z,78.47
2017-07-22T08:16:22.850Z,65.60
2017-07-22T08:18:50.403Z,80.57
2017-07-22T08:21:17.913Z,50.07
2017-07-22T08:23:45.421Z,36.77
2017-07-22T08:26:12.982Z,32.00
2017-07-22T08:28:40.532Z,38.90
2017-07-22T08:31:08.045Z,31.93
2017-07-22T08:33:35.629Z,28.63
2017-07-22T08:36:03.145Z,26.87
2017-07-22T08:38:30.655Z,30.17
2017-07-22T08:40:58.256Z,17.50
2017-07-22T08:43:25.762Z,20.60
2017-07-22T08:45:53.266Z,15.80
2017-07-22T08:48:20.822Z,13.70
2017-07-22T08:50:48.331Z,43.57
2017-07-22T08:53:15.839Z,37.63
2017-07-22T08:55:43.429Z,29.03
2017-07-22T08:58:10.928Z,49.93
2017-07-22T09:00:39.537Z,61.50
2017-07-22T09:03:07.085Z,60.83
2017-07-22T09:05:34.599Z,48.50
2017-07-22T09:08:02.162Z,68.10
2017-07-22T09:10:29.752Z,94.70
2017-07-22T09:12:57.265Z,120.47
2017-07-22T09:15:24.777Z,116.17
2017-07-22T09:17:52.325Z,82.77
2017-07-22T09:20:19.909Z,159.43
2017-07-22T09:22:47.505Z,119.97
2017-07-22T09:25:15.011Z,70.90
2017-07-22T09:27:42.557Z,60.20
2017-07-22T09:30:10.106Z,56.83
2017-07-22T09:32:37.656Z,47.40
2017-07-22T09:35:05.215Z,64.43
2017-07-22T09:37:32.744Z,82.97
2017-07-22T09:40:00.307Z,69.63
2017-07-22T09:42:27.855Z,37.07
2017-07-22T09:44:55.426Z,75.83
2017-07-22T09:47:22.940Z,71.00
2017-07-22T09:49:50.457Z,62.07
2017-07-22T09:52:18.006Z,28.27
2017-07-22T09:54:45.569Z,44.23
2017-07-22T09:57:13.082Z,56.63
2017-07-22T09:59:40.768Z,52.73
2017-07-22T10:02:08.306Z,48.57
2017-07-22T10:04:36.201Z,41.00
2017-07-22T10:07:03.791Z,40.93
2017-07-22T10:09:32.517Z,31.83
2017-07-22T10:12:00.269Z,28.37
2017-07-22T10:14:27.830Z,25.73
2017-07-22T10:16:55.373Z,20.10
2017-07-22T10:19:22.881Z,20.73
2017-07-22T10:21:50.429Z,22.07
2017-07-22T10:24:17.932Z,95.33
2017-07-22T10:26:45.473Z,39.23
2017-07-22T10:29:12.981Z,25.33
2017-07-22T10:31:40.517Z,27.83
2017-07-22T10:34:08.138Z,21.07
2017-07-22T10:36:35.646Z,19.67
2017-07-22T10:39:03.273Z,17.70
2017-07-22T10:41:30.834Z,26.10
2017-07-22T10:43:58.400Z,18.37
2017-07-22T10:46:26.005Z,24.03
2017-07-22T10:48:53.563Z,29.60
2017-07-22T10:51:21.118Z,19.17
2017-07-22T10:53:48.719Z,71.53
2017-07-22T10:56:16.368Z,96.43
2017-07-22T10:58:43.952Z,21.70
2017-07-22T11:01:11.509Z,47.17
2017-07-22T11:03:39.100Z,114.57
2017-07-22T11:06:06.694Z,97.43
2017-07-22T11:08:34.257Z,117.57
2017-07-22T11:11:01.848Z,102.67
2017-07-22T11:13:29.395Z,147.50
2017-07-22T11:15:56.984Z,66.80
2017-07-22T11:18:24.559Z,84.07
2017-07-22T11:20:52.184Z,88.70
2017-07-22T11:23:19.742Z,47.03
2017-07-22T11:25:48.736Z,52.50
2017-07-22T11:28:16.343Z,61.40
2017-07-22T11:30:43.927Z,37.87
2017-07-22T11:33:11.512Z,38.73
2017-07-22T11:35:39.072Z,51.07
2017-07-22T11:38:07.533Z,40.70
2017-07-22T11:40:35.155Z,37.90
2017-07-22T11:43:02.835Z,20.10
2017-07-22T11:45:30.432Z,22.57
2017-07-22T11:47:58.023Z,31.07
2017-07-22T11:50:25.603Z,36.77
2017-07-22T11:52:53.205Z,24.97
2017-07-22T11:55:20.935Z,36.67
2017-07-22T11:57:50.248Z,23.57
2017-07-22T12:00:17.803Z,38.70
2017-07-22T12:02:45.405Z,34.20
2017-07-22T12:05:12.959Z,43.73
2017-07-22T12:07:40.520Z,37.03
2017-07-22T12:10:08.125Z,28.33
2017-07-22T12:12:35.688Z,20.60
2017-07-22T12:15:03.564Z,26.77
2017-07-22T12:17:31.115Z,27.77
2017-07-22T12:19:58.662Z,23.20
2017-07-22T12:22:26.256Z,27.17
2017-07-22T12:24:53.812Z,26.80
2017-07-22T12:27:21.395Z,18.63
2017-07-22T12:29:48.980Z,26.50
2017-07-22T12:32:16.615Z,29.70
2017-07-22T12:34:44.175Z,32.93
2017-07-22T12:37:11.739Z,32.13
2017-07-22T12:39:39.362Z,25.17
2017-07-22T12:42:06.915Z,20.00
2017-07-22T12:44:34.499Z,20.07
2017-07-22T12:47:02.107Z,29.10
2017-07-22T12:49:29.720Z,33.10
2017-07-22T12:51:57.331Z,21.83
2017-07-22T12:54:24.896Z,18.67
2017-07-22T12:56:52.496Z,35.57
2017-07-22T12:59:20.045Z,19.30
2017-07-22T13:01:47.601Z,24.07
2017-07-22T13:04:15.187Z,19.70
2017-07-22T13:06:42.742Z,16.53
2017-07-22T13:09:10.354Z,19.87
2017-07-22T13:11:37.918Z,20.07
2017-07-22T13:14:05.469Z,16.73
2017-07-22T13:16:33.065Z,16.57
2017-07-22T13:19:00.612Z,20.03
2017-07-22T13:21:28.211Z,18.00
2017-07-22T13:23:55.834Z,17.67
2017-07-22T13:26:23.383Z,18.27
2017-07-22T13:28:50.932Z,17.77
2017-07-22T13:31:18.546Z,16.40
2017-07-22T13:33:46.100Z,19.30
2017-07-22T13:36:13.679Z,18.50
2017-07-22T13:38:41.288Z,18.40
2017-07-22T13:41:08.859Z,17.90
2017-07-22T13:43:36.403Z,28.37
2017-07-22T13:46:04.016Z,18.53
2017-07-22T13:48:31.591Z,27.33
2017-07-22T13:50:59.240Z,20.00
2017-07-22T13:53:26.800Z,18.57
2017-07-22T13:55:54.352Z,18.00
2017-07-22T13:58:22.024Z,19.90
2017-07-22T14:00:49.599Z,19.00
2017-07-22T14:03:17.152Z,22.27
2017-07-22T14:05:44.747Z,32.27
2017-07-22T14:08:12.296Z,18.20
2017-07-22T14:10:39.874Z,28.50
2017-07-22T14:13:07.464Z,29.30
2017-07-22T14:15:35.059Z,26.70
2017-07-22T14:18:02.695Z,42.30
2017-07-22T14:20:30.247Z,36.57
2017-07-22T14:22:57.802Z,36.27
2017-07-22T14:25:25.404Z,30.00
2017-07-22T14:27:52.995Z,43.17
2017-07-22T14:30:20.539Z,82.77
2017-07-22T14:32:48.087Z,77.90
2017-07-22T14:35:15.701Z,70.97
2017-07-22T14:37:43.280Z,49.67
2017-07-22T14:40:10.840Z,92.43
2017-07-22T14:42:38.458Z,175.70
2017-07-22T14:45:06.089Z,81.50
2017-07-22T14:47:33.749Z,47.13
2017-07-22T14:50:01.411Z,54.37
2017-07-22T14:52:29.018Z,98.07
2017-07-22T14:54:56.583Z,93.77
2017-07-22T14:57:24.249Z,77.40
2017-07-22T14:59:51.815Z,141.03
2017-07-22T15:10:38.440Z,40.57
2017-07-22T15:13:11.401Z,48.13
2017-07-22T15:15:40.334Z,37.70
2017-07-22T15:18:08.169Z,45.13
2017-07-22T15:20:35.952Z,36.53
2017-07-22T15:23:03.875Z,28.07
2017-07-22T15:25:31.735Z,25.63
2017-07-22T15:27:59.446Z,33.70
2017-07-22T15:30:27.012Z,25.83
2017-07-22T15:32:54.762Z,17.50
2017-07-22T15:35:22.316Z,18.23
2017-07-22T15:37:49.913Z,16.13
2017-07-22T15:40:17.516Z,16.93
2017-07-22T15:42:45.100Z,16.83
2017-07-22T15:45:12.680Z,15.90
2017-07-22T15:47:40.274Z,17.07
2017-07-22T15:50:07.820Z,16.57
2017-07-22T15:52:35.529Z,15.77
2017-07-22T15:55:03.397Z,16.13
2017-07-22T15:57:31.201Z,16.30
2017-07-22T15:59:58.909Z,24.37
2017-07-22T16:02:26.458Z,15.67
2017-07-22T16:04:54.067Z,16.27
2017-07-22T16:07:21.734Z,15.67
2017-07-22T16:09:49.368Z,15.57
2017-07-22T16:12:16.889Z,16.23
2017-07-22T16:14:44.441Z,14.80
2017-07-22T16:17:11.997Z,14.37
2017-07-22T16:19:39.521Z,15.80
2017-07-22T16:22:07.054Z,14.50
2017-07-22T16:24:34.686Z,14.10
2017-07-22T16:27:02.415Z,15.27
2017-07-22T16:29:29.992Z,14.07
2017-07-22T16:31:57.514Z,15.13
2017-07-22T16:34:25.089Z,13.80
2017-07-22T16:36:52.604Z,16.03
2017-07-22T16:39:20.159Z,14.03
2017-07-22T16:41:47.739Z,13.97
2017-07-22T16:44:15.249Z,12.60
2017-07-22T16:46:42.805Z,14.13
2017-07-22T16:49:10.373Z,14.37
2017-07-22T16:51:37.887Z,13.43
2017-07-22T16:54:05.399Z,14.97
2017-07-22T16:56:33.013Z,12.90
2017-07-22T16:59:00.530Z,13.53
2017-07-22T17:01:28.189Z,14.20
2017-07-22T17:03:55.741Z,12.77
2017-07-22T17:06:23.288Z,12.90
2017-07-22T17:08:50.857Z,13.77
2017-07-22T17:11:18.401Z,15.70
2017-07-22T17:13:45.960Z,13.27
2017-07-22T17:16:13.481Z,14.33
2017-07-22T17:18:41.002Z,14.53
2017-07-22T17:21:08.562Z,13.50
2017-07-22T17:23:36.085Z,13.43
2017-07-22T17:26:03.606Z,12.73
2017-07-22T17:28:31.170Z,13.87
2017-07-22T17:30:58.765Z,13.30
2017-07-22T17:33:26.342Z,14.03
2017-07-22T17:35:53.868Z,14.70
2017-07-22T17:38:21.374Z,14.90
2017-07-22T17:40:48.933Z,13.67
2017-07-22T17:43:16.457Z,13.30
2017-07-22T17:45:44.007Z,14.07
2017-07-22T17:48:11.585Z,13.20
2017-07-22T17:50:39.137Z,14.80
2017-07-22T17:53:06.654Z,14.33
2017-07-22T17:55:34.200Z,14.00
2017-07-22T17:58:01.703Z,14.50
2017-07-22T18:00:29.353Z,12.63
2017-07-22T18:02:56.939Z,14.50
2017-07-22T18:05:24.504Z,14.70
2017-07-22T18:07:52.025Z,12.90
2017-07-22T18:10:19.570Z,13.07
2017-07-22T18:12:47.152Z,13.20
2017-07-22T18:15:14.673Z,12.93
2017-07-22T18:17:42.269Z,13.40
2017-07-22T18:20:09.817Z,14.77
2017-07-22T18:22:37.381Z,13.60
2017-07-22T18:25:05.010Z,14.57
2017-07-22T18:27:32.695Z,14.73
2017-07-22T18:30:00.314Z,14.00
2017-07-22T18:32:27.948Z,13.50
2017-07-22T18:34:55.508Z,14.43
2017-07-22T18:37:23.062Z,14.83
2017-07-22T18:39:50.568Z,14.10
2017-07-22T18:42:18.137Z,13.30
2017-07-22T18:44:45.667Z,15.60
2017-07-22T18:47:13.183Z,14.43
2017-07-22T18:49:40.768Z,14.30
2017-07-22T18:52:08.321Z,15.27
2017-07-22T18:54:35.869Z,17.50
2017-07-22T18:57:03.493Z,15.20
2017-07-22T18:59:31.069Z,14.07
2017-07-22T19:01:58.680Z,15.40
2017-07-22T19:04:26.303Z,13.67
2017-07-22T19:06:53.857Z,12.60
2017-07-22T19:09:21.372Z,13.53
2017-07-22T19:11:48.926Z,14.60
2017-07-22T19:14:16.433Z,14.17
2017-07-22T19:16:43.949Z,14.93
2017-07-22T19:19:11.521Z,15.37
2017-07-22T19:21:39.085Z,13.77
2017-07-22T19:24:06.641Z,13.63
2017-07-22T19:26:34.158Z,14.53
2017-07-22T19:29:01.749Z,14.17
2017-07-22T19:31:29.352Z,14.20
2017-07-22T19:33:56.871Z,13.80
2017-07-22T19:36:24.389Z,15.90
2017-07-22T19:38:51.976Z,12.90
2017-07-22T19:41:19.492Z,14.80
2017-07-22T19:43:46.997Z,15.10
2017-07-22T19:46:14.553Z,14.37
2017-07-22T19:48:42.065Z,14.80
2017-07-22T19:51:09.581Z,14.47
2017-07-22T19:53:38.108Z,13.20
2017-07-22T19:56:05.674Z,13.73
2017-07-22T19:58:33.221Z,15.20
2017-07-22T20:01:00.918Z,13.00
2017-07-22T20:03:28.623Z,13.97
2017-07-22T20:05:56.149Z,11.50
2017-07-22T20:08:23.671Z,12.00
2017-07-22T20:10:51.262Z,11.63
2017-07-22T20:13:18.765Z,13.30
2017-07-22T20:15:46.276Z,12.10
2017-07-22T20:18:13.862Z,12.13
2017-07-22T20:20:41.368Z,13.50
2017-07-22T20:23:08.953Z,12.70
2017-07-22T20:25:36.499Z,13.90
2017-07-22T20:28:04.013Z,12.73
2017-07-22T20:30:31.643Z,12.93
2017-07-22T20:32:59.149Z,11.83
2017-07-22T20:35:26.702Z,11.43
2017-07-22T20:37:54.409Z,13.80
2017-07-22T20:40:21.917Z,10.57
2017-07-22T20:42:49.425Z,12.00
2017-07-22T20:45:17.023Z,11.67
2017-07-22T20:47:44.530Z,13.27
2017-07-22T20:50:12.039Z,11.70
2017-07-22T20:52:39.585Z,11.30
2017-07-22T20:55:07.097Z,12.33
2017-07-22T20:57:34.602Z,13.87
2017-07-22T21:00:02.204Z,12.70
2017-07-22T21:02:29.828Z,12.17
2017-07-22T21:04:57.390Z,12.20
2017-07-22T21:07:25.063Z,11.97
2017-07-22T21:09:52.578Z,11.80
2017-07-22T21:12:20.190Z,12.50
2017-07-22T21:14:47.869Z,11.63
2017-07-22T21:17:15.373Z,11.97
2017-07-22T21:19:42.942Z,11.97
2017-07-22T21:22:10.470Z,12.97
2017-07-22T21:24:38.002Z,12.10
2017-07-22T21:27:05.557Z,13.00
2017-07-22T21:29:33.104Z,11.30
2017-07-22T21:32:00.686Z,12.00
2017-07-22T21:34:28.233Z,12.03
2017-07-22T21:36:55.793Z,12.33
2017-07-22T21:39:23.316Z,12.33
2017-07-22T21:41:50.895Z,12.73
2017-07-22T21:44:18.447Z,12.83
2017-07-22T21:46:46.007Z,12.93
2017-07-22T21:49:13.548Z,11.70
2017-07-22T21:51:41.057Z,11.93
2017-07-22T21:54:08.624Z,12.37
2017-07-22T21:56:36.223Z,12.97
2017-07-22T21:59:03.796Z,11.23
2017-07-22T22:01:31.304Z,12.57
2017-07-22T22:03:58.920Z,11.30
2017-07-22T22:06:26.447Z,12.80
2017-07-22T22:08:53.965Z,11.27
2017-07-22T22:11:21.566Z,12.47
2017-07-22T22:13:49.079Z,10.60
2017-07-22T22:16:16.590Z,12.30
2017-07-22T22:18:44.129Z,12.63
2017-07-22T22:21:11.693Z,11.57
2017-07-22T22:23:39.297Z,13.50
2017-07-22T22:26:06.893Z,12.33
2017-07-22T22:28:34.417Z,13.47
2017-07-22T22:31:01.933Z,11.90
2017-07-22T22:33:29.486Z,11.40
2017-07-22T22:35:57.011Z,11.63
2017-07-22T22:38:24.554Z,12.53
2017-07-22T22:40:52.116Z,11.87
2017-07-22T22:43:19.659Z,12.27
2017-07-22T22:45:47.231Z,12.40
2017-07-22T22:48:14.798Z,12.40
2017-07-22T22:50:42.332Z,13.30
2017-07-22T22:53:09.921Z,13.77
2017-07-22T22:55:37.469Z,12.67
2017-07-22T22:58:04.972Z,12.87
2017-07-22T23:00:32.516Z,12.63
2017-07-22T23:03:00.029Z,13.10
2017-07-22T23:05:27.705Z,12.17
2017-07-22T23:07:55.317Z,14.00
2017-07-22T23:10:22.912Z,13.17
2017-07-22T23:12:50.505Z,14.63
2017-07-22T23:15:18.017Z,12.40
2017-07-22T23:17:45.521Z,14.30
2017-07-22T23:20:13.061Z,13.37
2017-07-22T23:22:40.653Z,12.27
2017-07-22T23:25:08.161Z,14.10
2017-07-22T23:27:35.687Z,13.37
2017-07-22T23:30:03.255Z,12.93
2017-07-22T23:32:30.776Z,14.40
2017-07-22T23:34:58.306Z,13.03
2017-07-22T23:37:25.849Z,13.47
2017-07-22T23:39:53.504Z,13.23
2017-07-22T23:42:21.014Z,13.67
2017-07-22T23:44:48.517Z,14.20
2017-07-22T23:47:16.090Z,13.80
2017-07-22T23:49:43.614Z,12.33
2017-07-22T23:52:11.132Z,12.67
2017-07-22T23:54:38.685Z,12.77
2017-07-22T23:57:06.189Z,14.00
2017-07-22T23:59:33.749Z,12.40
